createdAt,value
2022-08-26T00:00:43.312Z,51
2022-08-26T00:01:47.966Z,50
2022-08-26T00:02:52.515Z,43
2022-08-26T00:03:56.968Z,42
2022-08-26T00:05:01.311Z,37
2022-08-26T00:06:05.835Z,39
2022-08-26T00:07:10.128Z,27
2022-08-26T00:08:14.399Z,25
2022-08-26T00:09:18.807Z,25
2022-08-26T00:10:23.220Z,25
2022-08-26T00:11:27.675Z,29
2022-08-26T00:12:36.125Z,27
2022-08-26T00:13:37.166Z,30
2022-08-26T00:14:41.505Z,34
2022-08-26T00:15:45.919Z,25
2022-08-26T00:16:50.453Z,26
2022-08-26T00:17:55.157Z,36
2022-08-26T00:18:59.971Z,41
2022-08-26T00:20:04.614Z,42
2022-08-26T00:21:09.735Z,41
2022-08-26T00:22:14.583Z,38
2022-08-26T00:23:24.164Z,50
2022-08-26T00:24:26.379Z,45
2022-08-26T00:25:30.648Z,41
2022-08-26T00:26:34.934Z,34
2022-08-26T00:27:41.951Z,41
2022-08-26T00:28:46.340Z,39
2022-08-26T00:29:53.023Z,41
2022-08-26T00:30:57.376Z,37
2022-08-26T00:32:02.090Z,34
2022-08-26T00:33:07.198Z,30
2022-08-26T00:34:12.058Z,33
2022-08-26T00:35:15.876Z,25
2022-08-26T00:36:20.654Z,30
2022-08-26T00:37:24.989Z,30
2022-08-26T00:38:29.705Z,31
2022-08-26T00:39:34.551Z,30
2022-08-26T00:40:39.087Z,30
2022-08-26T00:41:46.469Z,32
2022-08-26T00:42:50.867Z,26
2022-08-26T00:43:55.124Z,29
2022-08-26T00:44:59.448Z,25
2022-08-26T00:46:03.900Z,31
2022-08-26T00:47:08.175Z,30
2022-08-26T00:48:12.755Z,27
2022-08-26T00:49:22.295Z,32
2022-08-26T00:50:29.768Z,28
2022-08-26T00:51:34.660Z,32
2022-08-26T00:52:39.204Z,29
2022-08-26T00:53:43.667Z,27
2022-08-26T00:54:53.239Z,31
2022-08-26T00:55:58.015Z,32
2022-08-26T00:57:02.311Z,30
2022-08-26T00:58:09.459Z,30
2022-08-26T00:59:13.787Z,25
2022-08-26T01:00:18.880Z,25
2022-08-26T01:01:23.656Z,31
2022-08-26T01:02:29.127Z,32
2022-08-26T01:03:33.395Z,29
2022-08-26T01:05:41.921Z,35
2022-08-26T01:06:46.303Z,32
2022-08-26T01:07:53.015Z,31
2022-08-26T01:08:57.304Z,25
2022-08-26T01:10:01.540Z,32
2022-08-26T01:11:06.223Z,25
2022-08-26T01:12:10.535Z,37
2022-08-26T01:13:14.991Z,32
2022-08-26T01:14:19.320Z,29
2022-08-26T01:15:23.515Z,37
2022-08-26T01:16:30.768Z,30
2022-08-26T01:17:34.945Z,34
2022-08-26T01:18:39.267Z,30
2022-08-26T01:19:43.771Z,34
2022-08-26T01:20:48.040Z,28
2022-08-26T01:22:00.956Z,26
2022-08-26T01:23:13.247Z,30
2022-08-26T01:24:17.469Z,29
2022-08-26T01:25:21.835Z,34
2022-08-26T01:26:26.421Z,33
2022-08-26T01:27:32.377Z,35
2022-08-26T01:28:35.735Z,34
2022-08-26T01:29:39.963Z,28
2022-08-26T01:30:44.287Z,30
2022-08-26T01:31:48.587Z,30
2022-08-26T01:32:53.131Z,28
2022-08-26T01:33:57.680Z,37
2022-08-26T01:35:05.031Z,26
2022-08-26T01:36:09.555Z,27
2022-08-26T01:37:15.763Z,27
2022-08-26T01:38:18.767Z,25
2022-08-26T01:39:23.379Z,28
2022-08-26T01:40:28.125Z,33
2022-08-26T01:41:33.267Z,41
2022-08-26T01:42:37.948Z,39
2022-08-26T01:43:42.999Z,37
2022-08-26T01:44:47.479Z,35
2022-08-26T01:45:57.201Z,34
2022-08-26T01:47:01.868Z,31
2022-08-26T01:48:06.384Z,38
2022-08-26T01:49:11.140Z,32
2022-08-26T01:50:20.141Z,34
2022-08-26T01:51:20.356Z,25
2022-08-26T01:52:27.570Z,35
2022-08-26T01:53:29.312Z,25
2022-08-26T01:54:33.860Z,28
2022-08-26T01:55:38.276Z,33
2022-08-26T01:56:42.582Z,25
2022-08-26T01:57:47.352Z,33
2022-08-26T01:58:51.919Z,33
2022-08-26T01:59:56.508Z,25
2022-08-26T02:01:01.096Z,30
2022-08-26T02:02:05.619Z,30
2022-08-26T02:03:10.144Z,30
2022-08-26T02:04:19.695Z,25
2022-08-26T02:05:29.417Z,33
2022-08-26T02:06:33.792Z,26
2022-08-26T02:07:40.829Z,29
2022-08-26T02:08:45.423Z,35
2022-08-26T02:09:50.436Z,34
2022-08-26T02:10:55.189Z,33
2022-08-26T02:11:59.156Z,33
2022-08-26T02:13:03.581Z,35
2022-08-26T02:14:07.896Z,35
2022-08-26T02:15:17.400Z,28
2022-08-26T02:16:21.894Z,30
2022-08-26T02:17:26.347Z,32
2022-08-26T02:18:30.951Z,34
2022-08-26T02:19:35.259Z,35
2022-08-26T02:20:44.688Z,32
2022-08-26T02:21:50.967Z,33
2022-08-26T02:22:53.631Z,33
2022-08-26T02:23:58.052Z,32
2022-08-26T02:25:07.707Z,29
2022-08-26T02:26:18.193Z,31
2022-08-26T02:27:21.416Z,27
2022-08-26T02:28:26.570Z,29
2022-08-26T02:29:30.509Z,28
2022-08-26T02:30:35.012Z,30
2022-08-26T02:31:39.404Z,28
2022-08-26T02:32:43.669Z,27
2022-08-26T02:33:47.872Z,31
2022-08-26T02:34:52.483Z,33
2022-08-26T02:35:56.928Z,32
2022-08-26T02:37:01.393Z,29
2022-08-26T02:38:09.989Z,29
2022-08-26T02:39:10.263Z,28
2022-08-26T02:40:14.618Z,30
2022-08-26T02:41:18.996Z,29
2022-08-26T02:42:23.420Z,28
2022-08-26T02:43:31.232Z,27
2022-08-26T02:44:32.311Z,25
2022-08-26T02:45:36.585Z,28
2022-08-26T02:46:41.096Z,26
2022-08-26T02:47:45.565Z,28
2022-08-26T02:48:49.676Z,26
2022-08-26T02:49:54.435Z,31
2022-08-26T02:50:58.792Z,31
2022-08-26T02:52:03.302Z,30
2022-08-26T02:53:07.775Z,31
2022-08-26T02:54:11.916Z,30
2022-08-26T02:55:16.407Z,29
2022-08-26T02:56:21.395Z,32
2022-08-26T02:57:25.971Z,29
2022-08-26T02:58:30.432Z,28
2022-08-26T02:59:34.864Z,31
2022-08-26T03:00:39.406Z,27
2022-08-26T03:01:43.960Z,28
2022-08-26T03:02:48.549Z,26
2022-08-26T03:03:52.948Z,27
2022-08-26T03:05:02.578Z,29
2022-08-26T03:06:07.235Z,31
2022-08-26T03:07:11.611Z,26
2022-08-26T03:08:15.964Z,29
2022-08-26T03:09:20.588Z,31
2022-08-26T03:10:25.069Z,30
2022-08-26T03:11:33.098Z,32
2022-08-26T03:12:34.214Z,27
2022-08-26T03:13:38.382Z,26
2022-08-26T03:14:45.827Z,28
2022-08-26T03:15:50.247Z,28
2022-08-26T03:16:54.688Z,25
2022-08-26T03:17:59.015Z,26
2022-08-26T03:19:03.405Z,25
2022-08-26T03:20:07.750Z,26
2022-08-26T03:21:12.086Z,25
2022-08-26T03:22:16.614Z,28
2022-08-26T03:23:21.386Z,28
2022-08-26T03:24:25.657Z,26
2022-08-26T03:25:30.106Z,27
2022-08-26T03:26:34.686Z,28
2022-08-26T03:27:39.370Z,27
2022-08-26T03:28:44.006Z,28
2022-08-26T03:29:53.769Z,28
2022-08-26T03:31:02.862Z,30
2022-08-26T03:32:07.275Z,29
2022-08-26T03:33:11.883Z,29
2022-08-26T03:34:16.378Z,31
2022-08-26T03:35:21.898Z,30
2022-08-26T03:36:25.374Z,32
2022-08-26T03:37:29.910Z,31
2022-08-26T03:38:34.662Z,31
2022-08-26T03:39:38.974Z,32
2022-08-26T03:40:43.470Z,32
2022-08-26T03:41:48.146Z,33
2022-08-26T03:42:52.534Z,33
2022-08-26T03:44:01.014Z,31
2022-08-26T03:45:01.385Z,33
2022-08-26T03:46:06.067Z,34
2022-08-26T03:47:10.587Z,33
2022-08-26T03:48:15.072Z,38
2022-08-26T03:49:19.491Z,35
2022-08-26T03:50:24.302Z,40
2022-08-26T03:51:28.582Z,35
2022-08-26T03:52:34.134Z,37
2022-08-26T03:53:38.582Z,39
2022-08-26T03:54:43.506Z,38
2022-08-26T03:55:47.482Z,36
2022-08-26T03:56:52.030Z,41
2022-08-26T03:57:56.474Z,40
2022-08-26T03:59:00.973Z,43
2022-08-26T04:00:05.370Z,51
2022-08-26T04:01:09.978Z,49
2022-08-26T04:02:14.493Z,51
2022-08-26T04:03:19.354Z,53
2022-08-26T04:04:24.494Z,55
2022-08-26T04:05:28.583Z,54
2022-08-26T04:06:33.051Z,60
2022-08-26T04:07:40.174Z,52
2022-08-26T04:08:44.653Z,56
2022-08-26T04:09:48.925Z,55
2022-08-26T04:10:56.086Z,54
2022-08-26T04:12:00.562Z,50
2022-08-26T04:13:05.370Z,53
2022-08-26T04:14:09.985Z,52
2022-08-26T04:15:14.741Z,49
2022-08-26T04:16:19.460Z,49
2022-08-26T04:17:24.908Z,51
2022-08-26T04:18:31.410Z,49
2022-08-26T04:19:33.038Z,49
2022-08-26T04:20:37.443Z,44
2022-08-26T04:21:41.870Z,46
2022-08-26T04:22:46.381Z,44
2022-08-26T04:23:50.995Z,42
2022-08-26T04:24:55.482Z,40
2022-08-26T04:25:59.885Z,42
2022-08-26T04:27:04.413Z,40
2022-08-26T04:28:08.825Z,38
2022-08-26T04:29:13.433Z,34
2022-08-26T04:30:17.946Z,35
2022-08-26T04:31:22.681Z,36
2022-08-26T04:32:26.967Z,33
2022-08-26T04:33:32.387Z,32
2022-08-26T04:34:35.816Z,34
2022-08-26T04:35:40.336Z,31
2022-08-26T04:36:44.996Z,30
2022-08-26T04:37:49.529Z,27
2022-08-26T04:38:53.840Z,28
2022-08-26T04:39:58.486Z,29
2022-08-26T04:41:02.827Z,29
2022-08-26T04:42:13.556Z,28
2022-08-26T04:43:18.020Z,25
2022-08-26T04:44:22.475Z,29
2022-08-26T04:45:27.015Z,25
2022-08-26T04:46:31.924Z,26
2022-08-26T04:47:36.391Z,28
2022-08-26T04:48:41.187Z,31
2022-08-26T04:49:45.508Z,28
2022-08-26T04:50:50.022Z,31
2022-08-26T04:51:54.482Z,27
2022-08-26T04:52:58.802Z,28
2022-08-26T04:54:03.136Z,27
2022-08-26T04:55:08.355Z,28
2022-08-26T04:56:12.092Z,25
2022-08-26T04:57:16.355Z,29
2022-08-26T04:58:20.553Z,29
2022-08-26T04:59:24.893Z,27
2022-08-26T05:00:29.312Z,26
2022-08-26T05:01:33.755Z,28
2022-08-26T05:02:38.248Z,25
2022-08-26T05:03:43.247Z,27
2022-08-26T05:04:47.588Z,27
2022-08-26T05:05:52.052Z,25
2022-08-26T05:07:02.554Z,27
2022-08-26T05:08:01.056Z,25
2022-08-26T05:09:05.607Z,29
2022-08-26T05:10:10.148Z,25
2022-08-26T05:11:14.588Z,27
2022-08-26T05:12:19.021Z,26
2022-08-26T05:13:23.516Z,25
2022-08-26T05:14:28.073Z,27
2022-08-26T05:15:32.595Z,29
2022-08-26T05:16:36.964Z,27
2022-08-26T05:17:41.380Z,25
2022-08-26T05:18:45.865Z,28
2022-08-26T05:19:50.487Z,27
2022-08-26T05:20:55.080Z,30
2022-08-26T05:21:59.645Z,25
2022-08-26T05:23:04.232Z,31
2022-08-26T05:24:08.755Z,34
2022-08-26T05:25:13.499Z,34
2022-08-26T05:26:17.783Z,33
2022-08-26T05:27:24.876Z,32
2022-08-26T05:28:29.275Z,36
2022-08-26T05:29:33.863Z,42
2022-08-26T05:30:38.288Z,40
2022-08-26T05:31:42.655Z,42
2022-08-26T05:32:47.180Z,40
2022-08-26T05:33:51.703Z,41
2022-08-26T05:34:56.087Z,42
2022-08-26T05:36:00.628Z,44
2022-08-26T05:37:10.367Z,47
2022-08-26T05:38:14.855Z,48
2022-08-26T05:39:19.219Z,44
2022-08-26T05:40:23.866Z,46
2022-08-26T05:41:34.062Z,45
2022-08-26T05:42:32.920Z,43
2022-08-26T05:43:37.271Z,47
2022-08-26T05:44:53.663Z,40
2022-08-26T05:45:46.497Z,41
2022-08-26T05:46:51.189Z,42
2022-08-26T05:48:01.783Z,45
2022-08-26T05:49:06.496Z,50
2022-08-26T05:50:11.036Z,51
2022-08-26T05:51:15.591Z,51
2022-08-26T05:52:20.084Z,52
2022-08-26T05:53:25.991Z,53
2022-08-26T05:54:29.183Z,53
2022-08-26T05:55:33.503Z,49
2022-08-26T05:56:43.087Z,47
2022-08-26T05:57:47.779Z,45
2022-08-26T05:58:52.172Z,44
2022-08-26T05:59:56.555Z,34
2022-08-26T06:01:00.970Z,48
2022-08-26T06:02:11.259Z,46
2022-08-26T06:03:16.092Z,45
2022-08-26T06:04:20.699Z,35
2022-08-26T06:05:25.337Z,37
2022-08-26T06:06:29.776Z,40
2022-08-26T06:07:34.429Z,30
2022-08-26T06:08:44.032Z,27
2022-08-26T06:09:48.516Z,26
2022-08-26T06:10:52.884Z,28
2022-08-26T06:11:58.297Z,27
2022-08-26T06:13:09.485Z,25
2022-08-26T06:14:07.241Z,31
2022-08-26T06:15:11.777Z,37
2022-08-26T06:16:16.210Z,45
2022-08-26T06:17:21.444Z,34
2022-08-26T06:18:26.017Z,41
2022-08-26T06:19:32.704Z,33
2022-08-26T06:20:36.564Z,35
2022-08-26T06:21:40.804Z,28
2022-08-26T06:22:48.508Z,35
2022-08-26T06:23:57.957Z,35
2022-08-26T06:25:07.464Z,32
2022-08-26T06:28:27.228Z,31
2022-08-26T06:29:31.640Z,30
2022-08-26T06:30:36.072Z,25
2022-08-26T06:31:42.071Z,25
2022-08-26T06:32:46.448Z,25
2022-08-26T06:33:50.838Z,31
2022-08-26T06:34:55.516Z,27
2022-08-26T06:36:00.025Z,25
2022-08-26T06:37:04.602Z,38
2022-08-26T06:38:08.985Z,25
2022-08-26T06:39:13.589Z,36
2022-08-26T06:40:17.958Z,29
2022-08-26T06:41:22.524Z,26
2022-08-26T06:42:26.941Z,32
2022-08-26T06:43:31.433Z,33
2022-08-26T06:44:35.997Z,33
2022-08-26T06:45:42.048Z,32
2022-08-26T06:46:47.266Z,30
2022-08-26T06:47:51.448Z,29
2022-08-26T06:48:56.080Z,36
2022-08-26T06:50:00.620Z,29
2022-08-26T06:51:05.528Z,26
2022-08-26T06:52:09.981Z,25
2022-08-26T06:53:14.492Z,26
2022-08-26T06:54:18.972Z,26
2022-08-26T06:55:26.849Z,31
2022-08-26T06:56:28.332Z,27
2022-08-26T06:57:41.275Z,26
2022-08-26T06:58:45.748Z,28
2022-08-26T07:00:03.436Z,25
2022-08-26T07:01:10.808Z,32
2022-08-26T07:02:15.515Z,35
2022-08-26T07:03:20.013Z,25
2022-08-26T07:04:24.724Z,29
2022-08-26T07:05:29.104Z,25
2022-08-26T07:06:33.412Z,27
2022-08-26T07:07:38.014Z,28
2022-08-26T07:08:42.686Z,28
2022-08-26T07:09:52.379Z,33
2022-08-26T07:10:55.910Z,29
2022-08-26T07:11:59.193Z,25
2022-08-26T07:13:03.614Z,30
2022-08-26T07:14:08.013Z,29
2022-08-26T07:15:12.705Z,31
2022-08-26T07:16:17.084Z,39
2022-08-26T07:17:21.816Z,35
2022-08-26T07:18:26.592Z,32
2022-08-26T07:19:31.851Z,39
2022-08-26T07:20:35.587Z,26
2022-08-26T07:21:40.478Z,27
2022-08-26T07:22:44.913Z,31
2022-08-26T07:23:49.653Z,32
2022-08-26T07:24:54.117Z,28
2022-08-26T07:25:58.762Z,28
2022-08-26T07:27:09.126Z,31
2022-08-26T07:28:13.597Z,29
2022-08-26T07:29:18.185Z,29
2022-08-26T07:30:22.739Z,28
2022-08-26T07:31:27.254Z,25
2022-08-26T07:32:31.725Z,25
2022-08-26T07:33:36.362Z,34
2022-08-26T07:34:41.757Z,26
2022-08-26T07:35:45.533Z,33
2022-08-26T07:36:50.021Z,32
2022-08-26T07:37:57.005Z,28
2022-08-26T07:38:59.289Z,37
2022-08-26T07:40:03.727Z,25
2022-08-26T07:41:08.576Z,25
2022-08-26T07:42:12.965Z,30
2022-08-26T07:43:17.509Z,26
2022-08-26T07:44:22.077Z,30
2022-08-26T07:45:27.145Z,25
2022-08-26T07:46:31.824Z,40
2022-08-26T07:47:36.348Z,28
2022-08-26T07:48:40.940Z,30
2022-08-26T07:49:45.528Z,29
2022-08-26T07:50:50.762Z,33
2022-08-26T07:51:54.760Z,25
2022-08-26T07:52:59.257Z,27
2022-08-26T07:54:04.112Z,32
2022-08-26T07:55:08.624Z,31
2022-08-26T07:56:13.016Z,25
2022-08-26T07:57:17.523Z,26
2022-08-26T07:58:21.903Z,30
2022-08-26T07:59:26.458Z,33
2022-08-26T08:00:30.978Z,34
2022-08-26T08:01:35.543Z,33
2022-08-26T08:02:39.962Z,38
2022-08-26T08:03:44.486Z,51
2022-08-26T08:04:48.913Z,48
2022-08-26T08:05:53.114Z,28
2022-08-26T08:06:57.821Z,34
2022-08-26T08:08:26.416Z,46
2022-08-26T08:09:07.029Z,48
2022-08-26T08:10:11.745Z,54
2022-08-26T08:11:15.917Z,27
2022-08-26T08:12:25.427Z,50
2022-08-26T08:13:30.126Z,25
2022-08-26T08:14:34.557Z,36
2022-08-26T08:15:38.893Z,48
2022-08-26T08:16:46.180Z,25
2022-08-26T08:17:50.492Z,46
2022-08-26T08:18:52.445Z,25
2022-08-26T08:19:56.889Z,40
2022-08-26T08:21:19.831Z,46
2022-08-26T08:22:06.850Z,37
2022-08-26T08:23:10.146Z,25
2022-08-26T08:24:14.504Z,30
2022-08-26T08:25:19.042Z,47
2022-08-26T08:26:23.712Z,25
2022-08-26T08:27:28.093Z,25
2022-08-26T08:28:35.249Z,27
2022-08-26T08:29:39.701Z,58
2022-08-26T08:30:44.331Z,31
2022-08-26T08:31:57.731Z,30
2022-08-26T08:32:53.080Z,50
2022-08-26T08:35:01.893Z,29
2022-08-26T08:36:06.637Z,33
2022-08-26T08:37:11.265Z,30
2022-08-26T08:38:15.765Z,35
2022-08-26T08:39:20.448Z,26
2022-08-26T08:40:31.677Z,34
2022-08-26T08:41:35.897Z,29
2022-08-26T08:42:45.503Z,45
2022-08-26T08:43:52.741Z,39
2022-08-26T08:44:57.165Z,30
2022-08-26T08:46:01.699Z,31
2022-08-26T08:47:11.336Z,25
2022-08-26T08:48:22.674Z,29
2022-08-26T08:49:27.498Z,28
2022-08-26T08:50:32.183Z,30
2022-08-26T08:51:36.642Z,25
2022-08-26T08:52:41.072Z,32
2022-08-26T08:53:45.503Z,28
2022-08-26T08:54:50.011Z,31
2022-08-26T08:55:55.167Z,30
2022-08-26T08:57:00.018Z,35
2022-08-26T08:58:09.892Z,27
2022-08-26T08:59:21.274Z,36
2022-08-26T09:00:30.181Z,25
2022-08-26T09:01:31.551Z,36
2022-08-26T09:02:41.116Z,29
2022-08-26T09:03:50.576Z,36
2022-08-26T09:05:03.313Z,35
2022-08-26T09:06:16.509Z,42
2022-08-26T09:07:22.600Z,42
2022-08-26T09:08:32.079Z,38
2022-08-26T09:09:36.476Z,46
2022-08-26T09:10:41.071Z,37
2022-08-26T09:11:45.818Z,37
2022-08-26T09:12:50.263Z,47
2022-08-26T09:13:54.696Z,49
2022-08-26T09:15:01.095Z,42
2022-08-26T09:16:05.687Z,29
2022-08-26T09:17:10.201Z,29
2022-08-26T09:18:19.646Z,34
2022-08-26T09:19:29.609Z,31
2022-08-26T09:20:45.533Z,41
2022-08-26T09:21:53.379Z,33
2022-08-26T09:22:58.767Z,37
2022-08-26T09:24:03.455Z,30
2022-08-26T09:25:08.151Z,31
2022-08-26T09:26:12.591Z,28
2022-08-26T09:27:19.966Z,25
2022-08-26T09:28:34.567Z,34
2022-08-26T09:29:38.999Z,34
2022-08-26T09:30:43.859Z,38
2022-08-26T09:31:48.302Z,37
2022-08-26T09:32:56.166Z,40
2022-08-26T09:34:02.521Z,38
2022-08-26T09:35:15.018Z,43
2022-08-26T09:36:29.364Z,42
2022-08-26T09:37:34.199Z,40
2022-08-26T09:38:41.318Z,35
2022-08-26T09:39:46.043Z,37
2022-08-26T09:40:50.906Z,30
2022-08-26T09:41:58.414Z,29
2022-08-26T09:43:12.847Z,32
2022-08-26T09:44:20.166Z,32
2022-08-26T09:45:24.646Z,33
2022-08-26T09:46:29.433Z,37
2022-08-26T09:47:33.735Z,34
2022-08-26T09:48:38.199Z,28
2022-08-26T09:49:42.818Z,35
2022-08-26T09:50:47.154Z,32
2022-08-26T09:51:57.203Z,30
2022-08-26T09:53:12.735Z,36
2022-08-26T09:54:20.627Z,38
2022-08-26T09:55:26.799Z,42
2022-08-26T09:56:31.292Z,30
2022-08-26T09:57:38.431Z,38
2022-08-26T09:58:48.595Z,30
2022-08-26T09:59:52.919Z,41
2022-08-26T10:00:57.588Z,39
2022-08-26T10:03:15.709Z,41
2022-08-26T10:04:19.674Z,54
2022-08-26T10:05:24.137Z,42
2022-08-26T10:06:36.431Z,52
2022-08-26T10:07:48.765Z,47
2022-08-26T10:08:54.166Z,40
2022-08-26T10:10:00.501Z,39
2022-08-26T10:11:04.801Z,38
2022-08-26T10:12:09.146Z,30
2022-08-26T10:13:13.400Z,31
2022-08-26T10:14:23.868Z,39
2022-08-26T10:15:33.381Z,40
2022-08-26T10:16:40.693Z,54
2022-08-26T10:17:50.275Z,44
2022-08-26T10:19:00.339Z,39
2022-08-26T10:20:09.829Z,38
2022-08-26T10:21:15.117Z,45
2022-08-26T10:22:19.673Z,34
2022-08-26T10:23:26.782Z,44
2022-08-26T10:24:31.220Z,43
2022-08-26T10:25:38.477Z,42
2022-08-26T10:26:53.141Z,45
2022-08-26T10:28:00.677Z,38
2022-08-26T10:30:14.186Z,49
2022-08-26T10:31:19.929Z,53
2022-08-26T10:32:29.105Z,42
2022-08-26T10:34:42.161Z,46
2022-08-26T10:35:46.809Z,50
2022-08-26T10:38:00.746Z,41
2022-08-26T10:39:10.293Z,45
2022-08-26T10:40:24.790Z,49
2022-08-26T10:41:39.290Z,47
2022-08-26T10:42:43.917Z,57
2022-08-26T10:43:56.121Z,45
2022-08-26T10:45:00.566Z,36
2022-08-26T10:46:10.151Z,33
2022-08-26T10:47:14.515Z,36
2022-08-26T10:48:21.593Z,33
2022-08-26T10:49:28.647Z,31
2022-08-26T10:50:33.189Z,25
2022-08-26T10:51:40.378Z,35
2022-08-26T10:52:52.501Z,38
2022-08-26T10:54:01.818Z,41
2022-08-26T10:55:16.244Z,41
2022-08-26T10:56:25.605Z,47
2022-08-26T10:57:40.189Z,40
2022-08-26T10:58:44.802Z,35
2022-08-26T10:59:58.942Z,35
2022-08-26T11:01:10.326Z,41
2022-08-26T11:02:25.909Z,59
2022-08-26T11:03:38.223Z,46
2022-08-26T11:04:47.061Z,52
2022-08-26T11:05:52.665Z,47
2022-08-26T11:07:07.125Z,43
2022-08-26T11:08:21.725Z,49
2022-08-26T11:09:29.030Z,42
2022-08-26T11:10:43.513Z,47
2022-08-26T11:11:53.014Z,53
2022-08-26T11:12:57.468Z,56
2022-08-26T11:14:01.815Z,47
2022-08-26T11:15:06.181Z,46
2022-08-26T11:16:13.285Z,49
2022-08-26T11:17:17.630Z,60
2022-08-26T11:18:22.181Z,50
2022-08-26T11:19:59.249Z,57
2022-08-26T11:20:41.724Z,56
2022-08-26T11:21:45.577Z,48
2022-08-26T11:23:00.325Z,60
2022-08-26T11:25:29.878Z,48
2022-08-26T11:26:36.108Z,55
2022-08-26T11:27:35.066Z,65
2022-08-26T11:28:39.677Z,60
2022-08-26T11:29:46.917Z,47
2022-08-26T11:30:57.974Z,50
2022-08-26T11:32:00.595Z,60
2022-08-26T11:33:05.045Z,42
2022-08-26T11:34:10.965Z,48
2022-08-26T11:35:14.149Z,41
2022-08-26T11:36:18.425Z,40
2022-08-26T11:37:32.866Z,51
2022-08-26T11:38:37.097Z,48
2022-08-26T11:39:45.806Z,50
2022-08-26T11:40:48.757Z,38
2022-08-26T11:41:57.740Z,36
2022-08-26T11:43:06.395Z,31
2022-08-26T11:44:13.609Z,27
2022-08-26T11:45:23.066Z,27
2022-08-26T11:46:32.237Z,39
2022-08-26T11:47:36.429Z,36
2022-08-26T11:48:40.721Z,38
2022-08-26T11:49:45.413Z,40
2022-08-26T11:50:49.753Z,40
2022-08-26T11:51:57.058Z,33
2022-08-26T11:53:11.401Z,40
2022-08-26T11:54:15.940Z,37
2022-08-26T11:55:24.087Z,33
2022-08-26T11:56:28.845Z,44
2022-08-26T11:57:32.045Z,38
2022-08-26T11:58:36.333Z,35
2022-08-26T11:59:43.317Z,35
2022-08-26T12:00:47.716Z,27
2022-08-26T12:01:57.199Z,28
2022-08-26T12:03:02.074Z,43
2022-08-26T12:04:06.579Z,39
2022-08-26T12:05:10.912Z,34
2022-08-26T12:06:15.346Z,41
2022-08-26T12:07:23.937Z,29
2022-08-26T12:08:27.850Z,29
2022-08-26T12:09:31.371Z,37
2022-08-26T12:10:36.026Z,40
2022-08-26T12:11:40.640Z,45
2022-08-26T12:12:45.012Z,39
2022-08-26T12:13:49.336Z,42
2022-08-26T12:14:58.696Z,41
2022-08-26T12:16:08.427Z,35
2022-08-26T12:17:12.851Z,34
2022-08-26T12:18:17.101Z,34
2022-08-26T12:19:25.131Z,31
2022-08-26T12:20:28.675Z,32
2022-08-26T12:21:34.700Z,33
2022-08-26T12:23:40.949Z,26
2022-08-26T12:24:48.480Z,25
2022-08-26T12:25:58.080Z,25
2022-08-26T12:27:05.263Z,40
2022-08-26T12:28:17.517Z,47
2022-08-26T12:29:26.982Z,36
2022-08-26T12:30:26.127Z,38
2022-08-26T12:31:31.118Z,49
2022-08-26T12:32:51.134Z,41
2022-08-26T12:33:51.035Z,47
2022-08-26T12:35:00.309Z,54
2022-08-26T12:36:05.015Z,37
2022-08-26T12:37:09.511Z,40
2022-08-26T12:38:14.844Z,46
2022-08-26T12:39:19.309Z,41
2022-08-26T12:40:29.867Z,41
2022-08-26T12:41:34.211Z,44
2022-08-26T12:42:41.785Z,47
2022-08-26T12:43:46.221Z,50
2022-08-26T12:44:53.515Z,43
2022-08-26T12:46:00.509Z,40
2022-08-26T12:47:04.844Z,48
2022-08-26T12:48:19.547Z,50
2022-08-26T12:49:29.106Z,51
2022-08-26T12:50:33.663Z,51
2022-08-26T12:51:38.131Z,48
2022-08-26T12:52:42.671Z,49
2022-08-26T12:53:56.068Z,50
2022-08-26T12:55:00.765Z,55
2022-08-26T12:56:19.355Z,46
2022-08-26T12:57:26.771Z,46
2022-08-26T12:58:31.323Z,46
2022-08-26T12:59:35.810Z,59
2022-08-26T13:00:40.648Z,49
2022-08-26T13:02:02.696Z,58
2022-08-26T13:03:08.777Z,58
2022-08-26T13:04:23.263Z,56
2022-08-26T13:05:35.487Z,50
2022-08-26T13:06:40.104Z,52
2022-08-26T13:07:44.680Z,58
2022-08-26T13:08:59.323Z,41
2022-08-26T13:10:08.895Z,49
2022-08-26T13:11:13.430Z,42
2022-08-26T13:12:18.079Z,42
2022-08-26T13:13:30.318Z,48
2022-08-26T13:14:34.706Z,44
2022-08-26T13:15:39.330Z,35
2022-08-26T13:16:43.765Z,45
2022-08-26T13:17:48.209Z,44
2022-08-26T13:18:55.113Z,40
2022-08-26T13:20:03.952Z,49
2022-08-26T13:21:07.195Z,48
2022-08-26T13:22:21.739Z,48
2022-08-26T13:23:26.234Z,36
2022-08-26T13:24:30.833Z,40
2022-08-26T13:25:35.466Z,38
2022-08-26T13:26:39.865Z,40
2022-08-26T13:27:44.341Z,43
2022-08-26T13:28:55.313Z,51
2022-08-26T13:29:55.277Z,48
2022-08-26T13:30:59.818Z,44
2022-08-26T13:32:04.383Z,51
2022-08-26T13:33:09.176Z,49
2022-08-26T13:34:17.030Z,49
2022-08-26T13:35:21.707Z,57
2022-08-26T13:36:26.257Z,44
2022-08-26T13:37:34.827Z,43
2022-08-26T13:38:35.320Z,45
2022-08-26T13:39:39.928Z,53
2022-08-26T13:40:44.506Z,46
2022-08-26T13:41:49.442Z,49
2022-08-26T13:42:54.368Z,37
2022-08-26T13:43:58.854Z,47
2022-08-26T13:45:03.179Z,37
2022-08-26T13:46:07.660Z,37
2022-08-26T13:47:16.496Z,33
2022-08-26T13:48:23.307Z,43
2022-08-26T13:49:30.478Z,44
2022-08-26T13:50:51.732Z,42
2022-08-26T13:52:00.528Z,43
2022-08-26T13:53:05.124Z,38
2022-08-26T13:54:09.832Z,42
2022-08-26T13:55:14.412Z,39
2022-08-26T13:56:18.988Z,43
2022-08-26T13:57:23.509Z,44
2022-08-26T13:58:28.348Z,44
2022-08-26T13:59:33.268Z,41
2022-08-26T14:00:37.828Z,38
2022-08-26T14:01:42.356Z,42
2022-08-26T14:02:46.908Z,51
2022-08-26T14:03:58.832Z,58
2022-08-26T14:05:06.113Z,46
2022-08-26T14:06:10.726Z,54
2022-08-26T14:07:15.344Z,56
2022-08-26T14:08:19.900Z,56
2022-08-26T14:09:24.529Z,50
2022-08-26T14:10:29.209Z,50
2022-08-26T14:11:34.853Z,53
2022-08-26T14:12:38.156Z,51
2022-08-26T14:13:42.825Z,55
2022-08-26T14:14:47.384Z,48
2022-08-26T14:15:56.049Z,53
2022-08-26T14:17:02.188Z,47
2022-08-26T14:18:06.741Z,55
2022-08-26T14:19:11.234Z,47
2022-08-26T14:20:15.732Z,53
2022-08-26T14:21:25.301Z,49
2022-08-26T14:22:30.015Z,53
2022-08-26T14:23:34.693Z,48
2022-08-26T14:24:49.131Z,49
2022-08-26T14:25:53.688Z,37
2022-08-26T14:27:13.241Z,56
2022-08-26T14:28:17.531Z,45
2022-08-26T14:29:21.937Z,66
2022-08-26T14:30:26.544Z,48
2022-08-26T14:31:31.221Z,53
2022-08-26T14:32:35.625Z,65
2022-08-26T14:33:40.040Z,71
2022-08-26T14:34:45.133Z,70
2022-08-26T14:35:49.804Z,67
2022-08-26T14:36:54.337Z,76
2022-08-26T14:37:58.792Z,73
2022-08-26T14:39:03.140Z,70
2022-08-26T14:40:10.594Z,44
2022-08-26T14:41:32.341Z,63
2022-08-26T14:42:36.600Z,58
2022-08-26T14:43:41.380Z,66
2022-08-26T14:44:49.188Z,77
2022-08-26T14:45:53.776Z,88
2022-08-26T14:47:04.324Z,80
2022-08-26T14:48:08.883Z,77
2022-08-26T14:49:13.224Z,72
2022-08-26T14:50:27.680Z,79
2022-08-26T14:51:32.021Z,83
2022-08-26T14:52:36.493Z,83
2022-08-26T14:53:56.125Z,80
2022-08-26T14:55:05.724Z,80
2022-08-26T14:56:13.715Z,80
2022-08-26T14:57:21.352Z,81
2022-08-26T14:58:28.568Z,88
2022-08-26T14:59:33.308Z,91
2022-08-26T15:00:57.780Z,81
2022-08-26T15:02:02.403Z,91
2022-08-26T15:03:06.964Z,92
2022-08-26T15:04:11.497Z,98
2022-08-26T15:05:18.920Z,95
2022-08-26T15:06:23.643Z,104
2022-08-26T15:07:28.468Z,103
2022-08-26T15:08:35.011Z,107
2022-08-26T15:09:39.456Z,107
2022-08-26T15:10:43.856Z,115
2022-08-26T15:11:48.541Z,116
2022-08-26T15:12:53.323Z,119
2022-08-26T15:14:01.931Z,119
2022-08-26T15:15:06.792Z,121
2022-08-26T15:16:11.943Z,117
2022-08-26T15:17:16.488Z,117
2022-08-26T15:18:21.184Z,119
2022-08-26T15:19:25.991Z,117
2022-08-26T15:21:36.176Z,115
2022-08-26T15:22:40.791Z,116
2022-08-26T15:23:47.699Z,115
2022-08-26T15:24:51.872Z,114
2022-08-26T15:25:56.880Z,112
2022-08-26T15:27:04.772Z,112
2022-08-26T15:28:09.449Z,106
2022-08-26T15:29:14.023Z,117
2022-08-26T15:30:20.940Z,120
2022-08-26T15:31:25.610Z,114
2022-08-26T15:32:34.444Z,115
2022-08-26T15:33:48.692Z,119
2022-08-26T15:34:54.391Z,123
2022-08-26T15:35:58.960Z,124
2022-08-26T15:37:03.428Z,127
2022-08-26T15:38:15.809Z,124
2022-08-26T15:39:20.136Z,121
2022-08-26T15:40:24.628Z,119
2022-08-26T15:41:29.148Z,118
2022-08-26T15:42:33.708Z,117
2022-08-26T15:43:38.217Z,123
2022-08-26T15:44:47.412Z,118
2022-08-26T15:45:56.915Z,119
2022-08-26T15:47:02.100Z,125
2022-08-26T15:48:11.287Z,121
2022-08-26T15:49:18.605Z,116
2022-08-26T15:50:20.136Z,115